This is the latest recevied weather packets stored in our database for station/object HA3KHB-6. If no packets are shown the sender has not sent any weather packets the latest 10 day(s).
| Time | Temp. | Humidity | Pressure | Rain* | Wind** | Luminosity | Snow |
|---|---|---|---|---|---|---|---|
| 1777642515 | 25.56° C | 42% | 1538 hPa | - | - | - | - |
| 1777641915 | 23.33° C | 47% | 1505.2 hPa | - | - | - | - |
| 1777641314 | 21.11° C | 42% | 1526.7 hPa | - | - | - | - |
| 1777640714 | 21.11° C | 36% | 1527.6 hPa | - | - | - | - |
| 1777640114 | 23.33° C | 34% | 1533 hPa | - | - | - | - |
| 1777639513 | 26.67° C | 31% | 1540.5 hPa | - | - | - | - |
| 1777638913 | 29.44° C | 34% | 1548.6 hPa | - | - | - | - |
| 1777638313 | 29.44° C | 35% | 1548.3 hPa | - | - | - | - |
| 1777637712 | 28.33° C | 36% | 1544.8 hPa | - | - | - | - |
| 1777637112 | 26.11° C | 35% | 1539.7 hPa | - | - | - | - |
| 1777636512 | 27.22° C | 34% | 1542.8 hPa | - | - | - | - |
| 1777635916 | 27.78° C | 36% | 1544.5 hPa | - | - | - | - |
| 1777635316 | 27.78° C | 40% | 1513.2 hPa | - | - | - | - |
| 1777634716 | 26.67° C | 44% | 1397.9 hPa | - | - | - | - |
| 1777634115 | 26.11° C | 40% | 1497.1 hPa | - | - | - | - |
| 1777633515 | 23.89° C | 41% | 1484.6 hPa | - | - | - | - |
| 1777632915 | 24.44° C | 48% | 1091.2 hPa | - | - | - | - |
| 1777632315 | 23.89° C | 53% | 836.1 hPa | - | - | - | - |
| 1777631715 | 23.33° C | 55% | 661.8 hPa | - | - | - | - |
| 1777631115 | 22.78° C | 62% | 370.8 hPa | - | - | - | - |
| 1777630515 | 21.67° C | 66% | 272.8 hPa | - | - | - | - |
| 1777629915 | 22.78° C | 73% | 35.7 hPa | - | - | - | - |
| 1777629315 | 21.11° C | 77% | - | - | - | - | - |
| 1777628715 | 20.56° C | 82% | - | - | - | - | - |
| 1777628115 | 19.44° C | 86% | - | - | - | - | - |
* Rain since midnight (hover to see other rain measurements)
** Current wind speed in m/s (hover to see current wind gust speed)